This is the latest recevied weather packets stored in our database for station/object LTAC. If no packets are shown the sender has not sent any weather packets the latest 1 day(s).
| Time | Temp. | Humidity | Pressure | Rain* | Wind** | Luminosity | Snow |
|---|---|---|---|---|---|---|---|
| 1778031004 | 5° C | 86% | 1014 hPa | - | 0.45 m/s, 0° | - | - |
| 1778030103 | 5° C | 93% | 1014 hPa | - | 0.89 m/s, 0° | - | - |
| 1778028304 | 5° C | 86% | 1014 hPa | - | 0.45 m/s, 0° | - | - |
| 1778027405 | 5° C | 86% | 1014 hPa | - | 0.45 m/s, 0° | - | - |
| 1778026504 | 5° C | 93% | 1014 hPa | - | 0.89 m/s, 280° | - | - |
| 1778025605 | 5° C | 93% | 1014 hPa | - | 0.89 m/s, 280° | - | - |
| 1778024704 | 6.11° C | 81% | 1014 hPa | - | 0.89 m/s, 0° | - | - |
| 1778023805 | 6.11° C | 81% | 1014 hPa | - | 0.89 m/s, 0° | - | - |
| 1778022004 | 7.22° C | 81% | 1014 hPa | - | 1.34 m/s, 260° | - | - |
| 1778020216 | 7.78° C | 75% | 1014 hPa | - | 0.45 m/s, 0° | - | - |
| 1778019304 | 8.89° C | 70% | 1014 hPa | - | 0.89 m/s, 0° | - | - |
| 1778018406 | 7.78° C | 75% | 1014 hPa | - | 1.34 m/s, 320° | - | - |
| 1778017504 | 7.78° C | 75% | 1014 hPa | - | 1.34 m/s, 320° | - | - |
| 1778015705 | 7.78° C | 81% | 1014 hPa | - | 1.34 m/s, 260° | - | - |
| 1778013004 | 7.78° C | 81% | 1014 hPa | - | 2.24 m/s, 240° | - | - |
| 1778010304 | 8.89° C | 76% | 1014 hPa | - | 3.13 m/s, 310° | - | - |
| 1778009405 | 8.89° C | 76% | 1014 hPa | - | 3.13 m/s, 310° | - | - |
| 1778006703 | 8.89° C | 76% | 1013 hPa | - | 0.45 m/s, 280° | - | - |
| 1778005804 | 8.89° C | 76% | 1013 hPa | - | 0.45 m/s, 280° | - | - |
| 1778004904 | 10° C | 71% | 1013 hPa | - | 4.02 m/s, 280° | - | - |
| 1778002204 | 11.11° C | 66% | 1013 hPa | - | 5.36 m/s, 280° | - | - |
| 1778001304 | 11.11° C | 66% | 1013 hPa | - | 2.68 m/s, 260° | - | - |
| 1777999504 | 11.11° C | 71% | 1013 hPa | - | 3.58 m/s, 250° | - | - |
| 1777998604 | 11.11° C | 71% | 1013 hPa | - | 3.58 m/s, 250° | - | - |
| 1777995904 | 12.22° C | 58% | 1013 hPa | - | 0.45 m/s, 260° | - | - |
* Rain since midnight (hover to see other rain measurements)
** Current wind speed in m/s (hover to see current wind gust speed)